sensor_id;sensor_type;location;lat;lon;timestamp;P1;durP1;ratioP1;P2;durP2;ratioP2
59972;SDS011;55298;-36.624;-64.282;2024-02-21T00:00:27;7.25;;;2.85;;
59972;SDS011;55298;-36.624;-64.282;2024-02-21T00:02:58;5.60;;;2.50;;
59972;SDS011;55298;-36.624;-64.282;2024-02-21T00:05:27;9.90;;;3.20;;
59972;SDS011;55298;-36.624;-64.282;2024-02-21T00:07:55;5.93;;;2.80;;
59972;SDS011;55298;-36.624;-64.282;2024-02-21T00:10:25;6.55;;;3.75;;
59972;SDS011;55298;-36.624;-64.282;2024-02-21T00:12:53;6.45;;;2.97;;
59972;SDS011;55298;-36.624;-64.282;2024-02-21T00:15:21;8.18;;;2.72;;
59972;SDS011;55298;-36.624;-64.282;2024-02-21T00:17:49;9.82;;;2.67;;
59972;SDS011;55298;-36.624;-64.282;2024-02-21T00:20:17;6.60;;;4.07;;
59972;SDS011;55298;-36.624;-64.282;2024-02-21T00:22:45;6.72;;;3.80;;
59972;SDS011;55298;-36.624;-64.282;2024-02-21T00:27:38;5.53;;;2.47;;
59972;SDS011;55298;-36.624;-64.282;2024-02-21T00:30:06;7.68;;;2.50;;
59972;SDS011;55298;-36.624;-64.282;2024-02-21T00:32:34;6.30;;;2.63;;
59972;SDS011;55298;-36.624;-64.282;2024-02-21T00:35:04;7.75;;;2.92;;
59972;SDS011;55298;-36.624;-64.282;2024-02-21T00:37:32;7.10;;;2.55;;
59972;SDS011;55298;-36.624;-64.282;2024-02-21T00:39:59;5.47;;;2.30;;
59972;SDS011;55298;-36.624;-64.282;2024-02-21T00:42:27;6.90;;;2.47;;
59972;SDS011;55298;-36.624;-64.282;2024-02-21T00:44:56;5.15;;;2.03;;
59972;SDS011;55298;-36.624;-64.282;2024-02-21T00:47:25;4.32;;;2.67;;
59972;SDS011;55298;-36.624;-64.282;2024-02-21T00:49:52;6.80;;;2.55;;
59972;SDS011;55298;-36.624;-64.282;2024-02-21T00:52:20;8.23;;;2.60;;
59972;SDS011;55298;-36.624;-64.282;2024-02-21T00:54:48;5.15;;;2.65;;
59972;SDS011;55298;-36.624;-64.282;2024-02-21T00:57:16;4.60;;;2.10;;
59972;SDS011;55298;-36.624;-64.282;2024-02-21T00:59:43;6.18;;;2.35;;
59972;SDS011;55298;-36.624;-64.282;2024-02-21T01:02:11;5.80;;;2.40;;
59972;SDS011;55298;-36.624;-64.282;2024-02-21T01:04:39;4.55;;;2.08;;
59972;SDS011;55298;-36.624;-64.282;2024-02-21T01:07:07;5.32;;;2.15;;
59972;SDS011;55298;-36.624;-64.282;2024-02-21T01:09:34;7.93;;;2.38;;
59972;SDS011;55298;-36.624;-64.282;2024-02-21T01:12:02;5.22;;;2.40;;
59972;SDS011;55298;-36.624;-64.282;2024-02-21T01:14:30;9.48;;;2.80;;
59972;SDS011;55298;-36.624;-64.282;2024-02-21T01:16:58;4.05;;;2.22;;
59972;SDS011;55298;-36.624;-64.282;2024-02-21T01:19:27;5.90;;;2.60;;
59972;SDS011;55298;-36.624;-64.282;2024-02-21T01:21:54;4.50;;;2.58;;
59972;SDS011;55298;-36.624;-64.282;2024-02-21T01:24:23;8.55;;;2.30;;
59972;SDS011;55298;-36.624;-64.282;2024-02-21T01:26:51;5.57;;;2.20;;
59972;SDS011;55298;-36.624;-64.282;2024-02-21T01:29:19;9.35;;;2.55;;
59972;SDS011;55298;-36.624;-64.282;2024-02-21T01:31:46;8.38;;;2.28;;
59972;SDS011;55298;-36.624;-64.282;2024-02-21T01:34:15;5.80;;;2.40;;
59972;SDS011;55298;-36.624;-64.282;2024-02-21T01:36:44;16.52;;;3.03;;
59972;SDS011;55298;-36.624;-64.282;2024-02-21T01:39:12;8.63;;;2.50;;
59972;SDS011;55298;-36.624;-64.282;2024-02-21T01:41:40;5.13;;;2.20;;
59972;SDS011;55298;-36.624;-64.282;2024-02-21T01:44:13;5.45;;;2.80;;
59972;SDS011;55298;-36.624;-64.282;2024-02-21T01:46:41;5.15;;;3.13;;
59972;SDS011;55298;-36.624;-64.282;2024-02-21T01:49:09;3.97;;;2.17;;
59972;SDS011;55298;-36.624;-64.282;2024-02-21T01:51:37;5.00;;;2.33;;
59972;SDS011;55298;-36.624;-64.282;2024-02-21T01:54:10;6.78;;;2.47;;
59972;SDS011;55298;-36.624;-64.282;2024-02-21T01:56:41;5.85;;;2.17;;
59972;SDS011;55298;-36.624;-64.282;2024-02-21T01:59:14;8.23;;;2.20;;
59972;SDS011;55298;-36.624;-64.282;2024-02-21T02:01:44;7.05;;;2.67;;
59972;SDS011;55298;-36.624;-64.282;2024-02-21T02:04:14;3.60;;;2.35;;
59972;SDS011;55298;-36.624;-64.282;2024-02-21T02:06:41;3.85;;;2.20;;
59972;SDS011;55298;-36.624;-64.282;2024-02-21T02:09:09;7.65;;;2.85;;
59972;SDS011;55298;-36.624;-64.282;2024-02-21T02:11:37;4.43;;;2.00;;
59972;SDS011;55298;-36.624;-64.282;2024-02-21T02:14:08;5.15;;;2.22;;
59972;SDS011;55298;-36.624;-64.282;2024-02-21T02:16:36;6.03;;;2.45;;
59972;SDS011;55298;-36.624;-64.282;2024-02-21T02:19:04;4.53;;;2.50;;
59972;SDS011;55298;-36.624;-64.282;2024-02-21T02:21:46;5.43;;;2.22;;
59972;SDS011;55298;-36.624;-64.282;2024-02-21T02:24:19;6.22;;;2.35;;
59972;SDS011;55298;-36.624;-64.282;2024-02-21T02:26:48;6.03;;;2.60;;
59972;SDS011;55298;-36.624;-64.282;2024-02-21T02:29:16;6.18;;;2.30;;
59972;SDS011;55298;-36.624;-64.282;2024-02-21T02:31:45;4.53;;;2.03;;
59972;SDS011;55298;-36.624;-64.282;2024-02-21T02:34:14;3.88;;;2.33;;
59972;SDS011;55298;-36.624;-64.282;2024-02-21T02:36:41;5.47;;;2.53;;
59972;SDS011;55298;-36.624;-64.282;2024-02-21T02:39:09;7.32;;;2.40;;
59972;SDS011;55298;-36.624;-64.282;2024-02-21T02:41:37;5.05;;;2.10;;
59972;SDS011;55298;-36.624;-64.282;2024-02-21T02:44:05;4.55;;;2.33;;
59972;SDS011;55298;-36.624;-64.282;2024-02-21T02:46:33;5.72;;;2.20;;
59972;SDS011;55298;-36.624;-64.282;2024-02-21T02:49:00;3.78;;;2.28;;
59972;SDS011;55298;-36.624;-64.282;2024-02-21T02:51:29;4.32;;;2.30;;
59972;SDS011;55298;-36.624;-64.282;2024-02-21T02:53:57;6.05;;;2.45;;
59972;SDS011;55298;-36.624;-64.282;2024-02-21T02:56:24;4.88;;;2.25;;
59972;SDS011;55298;-36.624;-64.282;2024-02-21T02:58:52;3.47;;;2.20;;
59972;SDS011;55298;-36.624;-64.282;2024-02-21T03:01:20;4.15;;;2.08;;
59972;SDS011;55298;-36.624;-64.282;2024-02-21T03:03:49;4.68;;;2.60;;
59972;SDS011;55298;-36.624;-64.282;2024-02-21T03:06:17;4.80;;;2.35;;
59972;SDS011;55298;-36.624;-64.282;2024-02-21T03:08:46;5.40;;;2.20;;
59972;SDS011;55298;-36.624;-64.282;2024-02-21T03:11:16;4.90;;;2.30;;
59972;SDS011;55298;-36.624;-64.282;2024-02-21T03:13:44;4.03;;;2.42;;
59972;SDS011;55298;-36.624;-64.282;2024-02-21T03:16:13;6.53;;;2.83;;
59972;SDS011;55298;-36.624;-64.282;2024-02-21T03:18:44;7.95;;;2.47;;
59972;SDS011;55298;-36.624;-64.282;2024-02-21T03:21:15;4.72;;;2.13;;
59972;SDS011;55298;-36.624;-64.282;2024-02-21T03:23:42;4.93;;;2.30;;
59972;SDS011;55298;-36.624;-64.282;2024-02-21T03:26:10;3.42;;;2.22;;
59972;SDS011;55298;-36.624;-64.282;2024-02-21T03:28:37;5.63;;;2.20;;
59972;SDS011;55298;-36.624;-64.282;2024-02-21T03:31:05;4.35;;;2.10;;
59972;SDS011;55298;-36.624;-64.282;2024-02-21T03:33:33;3.05;;;2.00;;
59972;SDS011;55298;-36.624;-64.282;2024-02-21T03:36:00;5.28;;;2.28;;
59972;SDS011;55298;-36.624;-64.282;2024-02-21T03:38:29;3.25;;;2.15;;
59972;SDS011;55298;-36.624;-64.282;2024-02-21T03:40:56;3.58;;;2.00;;
59972;SDS011;55298;-36.624;-64.282;2024-02-21T03:43:24;4.10;;;1.90;;
59972;SDS011;55298;-36.624;-64.282;2024-02-21T03:45:52;4.28;;;2.10;;
59972;SDS011;55298;-36.624;-64.282;2024-02-21T03:48:19;4.22;;;2.58;;
59972;SDS011;55298;-36.624;-64.282;2024-02-21T03:50:47;3.50;;;2.13;;
59972;SDS011;55298;-36.624;-64.282;2024-02-21T03:53:15;3.78;;;2.00;;
59972;SDS011;55298;-36.624;-64.282;2024-02-21T03:55:44;3.30;;;2.00;;
59972;SDS011;55298;-36.624;-64.282;2024-02-21T03:58:11;4.03;;;2.00;;
59972;SDS011;55298;-36.624;-64.282;2024-02-21T04:00:39;4.57;;;2.00;;
59972;SDS011;55298;-36.624;-64.282;2024-02-21T04:03:07;4.50;;;2.15;;
59972;SDS011;55298;-36.624;-64.282;2024-02-21T04:05:35;5.65;;;2.30;;
59972;SDS011;55298;-36.624;-64.282;2024-02-21T04:08:04;3.90;;;1.88;;
59972;SDS011;55298;-36.624;-64.282;2024-02-21T04:10:33;2.28;;;1.90;;
59972;SDS011;55298;-36.624;-64.282;2024-02-21T04:13:01;4.40;;;2.38;;
59972;SDS011;55298;-36.624;-64.282;2024-02-21T04:15:28;6.25;;;2.20;;
59972;SDS011;55298;-36.624;-64.282;2024-02-21T04:17:56;6.43;;;2.30;;
59972;SDS011;55298;-36.624;-64.282;2024-02-21T04:20:24;2.85;;;2.03;;
59972;SDS011;55298;-36.624;-64.282;2024-02-21T04:22:51;3.65;;;2.20;;
59972;SDS011;55298;-36.624;-64.282;2024-02-21T04:25:19;6.00;;;2.05;;
59972;SDS011;55298;-36.624;-64.282;2024-02-21T04:27:47;3.75;;;2.45;;
59972;SDS011;55298;-36.624;-64.282;2024-02-21T04:30:15;4.65;;;2.22;;
59972;SDS011;55298;-36.624;-64.282;2024-02-21T04:32:43;3.05;;;2.40;;
59972;SDS011;55298;-36.624;-64.282;2024-02-21T04:35:11;5.60;;;2.40;;
59972;SDS011;55298;-36.624;-64.282;2024-02-21T04:37:38;5.13;;;2.10;;
59972;SDS011;55298;-36.624;-64.282;2024-02-21T04:40:06;6.22;;;2.20;;
59972;SDS011;55298;-36.624;-64.282;2024-02-21T04:42:35;3.13;;;2.15;;
59972;SDS011;55298;-36.624;-64.282;2024-02-21T04:45:02;5.60;;;2.40;;
59972;SDS011;55298;-36.624;-64.282;2024-02-21T04:47:31;3.10;;;2.25;;
59972;SDS011;55298;-36.624;-64.282;2024-02-21T04:49:59;3.97;;;1.90;;
59972;SDS011;55298;-36.624;-64.282;2024-02-21T04:52:26;3.28;;;2.10;;
59972;SDS011;55298;-36.624;-64.282;2024-02-21T04:54:55;4.93;;;2.20;;
59972;SDS011;55298;-36.624;-64.282;2024-02-21T04:57:23;5.47;;;2.38;;
59972;SDS011;55298;-36.624;-64.282;2024-02-21T04:59:55;4.00;;;2.28;;
59972;SDS011;55298;-36.624;-64.282;2024-02-21T05:02:22;5.30;;;2.88;;
59972;SDS011;55298;-36.624;-64.282;2024-02-21T05:04:52;3.38;;;2.10;;
59972;SDS011;55298;-36.624;-64.282;2024-02-21T05:07:20;6.63;;;2.10;;
59972;SDS011;55298;-36.624;-64.282;2024-02-21T05:09:47;3.90;;;1.98;;
59972;SDS011;55298;-36.624;-64.282;2024-02-21T05:12:15;4.07;;;2.20;;
59972;SDS011;55298;-36.624;-64.282;2024-02-21T05:14:43;3.50;;;2.00;;
59972;SDS011;55298;-36.624;-64.282;2024-02-21T05:17:11;4.00;;;2.30;;
59972;SDS011;55298;-36.624;-64.282;2024-02-21T05:19:38;4.18;;;2.15;;
59972;SDS011;55298;-36.624;-64.282;2024-02-21T05:22:06;6.07;;;2.40;;
59972;SDS011;55298;-36.624;-64.282;2024-02-21T05:24:34;5.57;;;2.20;;
59972;SDS011;55298;-36.624;-64.282;2024-02-21T05:27:02;3.95;;;2.17;;
59972;SDS011;55298;-36.624;-64.282;2024-02-21T05:29:29;4.38;;;2.00;;
59972;SDS011;55298;-36.624;-64.282;2024-02-21T05:31:57;3.58;;;2.10;;
59972;SDS011;55298;-36.624;-64.282;2024-02-21T05:34:27;4.32;;;1.98;;
59972;SDS011;55298;-36.624;-64.282;2024-02-21T05:36:55;2.00;;;1.80;;
59972;SDS011;55298;-36.624;-64.282;2024-02-21T05:39:25;5.85;;;2.00;;
59972;SDS011;55298;-36.624;-64.282;2024-02-21T05:41:55;4.68;;;2.03;;
59972;SDS011;55298;-36.624;-64.282;2024-02-21T05:44:22;5.47;;;2.10;;
59972;SDS011;55298;-36.624;-64.282;2024-02-21T05:46:50;4.60;;;2.00;;
59972;SDS011;55298;-36.624;-64.282;2024-02-21T05:49:17;3.85;;;2.00;;
59972;SDS011;55298;-36.624;-64.282;2024-02-21T05:51:45;3.05;;;1.95;;
59972;SDS011;55298;-36.624;-64.282;2024-02-21T05:54:13;3.65;;;1.88;;
59972;SDS011;55298;-36.624;-64.282;2024-02-21T05:56:43;3.40;;;1.70;;
59972;SDS011;55298;-36.624;-64.282;2024-02-21T05:59:12;4.70;;;2.00;;
59972;SDS011;55298;-36.624;-64.282;2024-02-21T06:01:40;2.33;;;1.80;;
59972;SDS011;55298;-36.624;-64.282;2024-02-21T06:04:08;4.95;;;2.17;;
59972;SDS011;55298;-36.624;-64.282;2024-02-21T06:06:35;4.50;;;2.10;;
59972;SDS011;55298;-36.624;-64.282;2024-02-21T06:09:03;3.50;;;1.85;;
59972;SDS011;55298;-36.624;-64.282;2024-02-21T06:11:30;3.90;;;1.90;;
59972;SDS011;55298;-36.624;-64.282;2024-02-21T06:13:58;2.55;;;2.10;;
59972;SDS011;55298;-36.624;-64.282;2024-02-21T06:16:26;2.75;;;2.10;;
59972;SDS011;55298;-36.624;-64.282;2024-02-21T06:18:53;3.10;;;1.98;;
59972;SDS011;55298;-36.624;-64.282;2024-02-21T06:21:21;2.13;;;1.90;;
59972;SDS011;55298;-36.624;-64.282;2024-02-21T06:23:49;4.28;;;2.00;;
59972;SDS011;55298;-36.624;-64.282;2024-02-21T06:26:16;3.92;;;2.10;;
59972;SDS011;55298;-36.624;-64.282;2024-02-21T06:28:44;4.70;;;2.10;;
59972;SDS011;55298;-36.624;-64.282;2024-02-21T06:31:12;3.78;;;2.10;;
59972;SDS011;55298;-36.624;-64.282;2024-02-21T06:33:41;3.58;;;2.13;;
59972;SDS011;55298;-36.624;-64.282;2024-02-21T06:36:09;4.60;;;2.17;;
59972;SDS011;55298;-36.624;-64.282;2024-02-21T06:38:37;3.05;;;2.20;;
59972;SDS011;55298;-36.624;-64.282;2024-02-21T06:41:05;4.97;;;2.10;;
59972;SDS011;55298;-36.624;-64.282;2024-02-21T06:43:41;3.78;;;1.98;;
59972;SDS011;55298;-36.624;-64.282;2024-02-21T06:46:08;3.45;;;2.17;;
59972;SDS011;55298;-36.624;-64.282;2024-02-21T06:48:36;2.72;;;2.10;;
59972;SDS011;55298;-36.624;-64.282;2024-02-21T06:51:04;4.60;;;2.13;;
59972;SDS011;55298;-36.624;-64.282;2024-02-21T06:53:32;4.50;;;2.47;;
59972;SDS011;55298;-36.624;-64.282;2024-02-21T06:56:00;3.88;;;1.90;;
59972;SDS011;55298;-36.624;-64.282;2024-02-21T06:58:27;4.22;;;2.40;;
59972;SDS011;55298;-36.624;-64.282;2024-02-21T07:00:55;3.33;;;2.00;;
59972;SDS011;55298;-36.624;-64.282;2024-02-21T07:03:23;4.13;;;2.20;;
59972;SDS011;55298;-36.624;-64.282;2024-02-21T07:05:50;4.38;;;2.15;;
59972;SDS011;55298;-36.624;-64.282;2024-02-21T07:08:18;6.97;;;2.30;;
59972;SDS011;55298;-36.624;-64.282;2024-02-21T07:10:46;10.10;;;3.05;;
59972;SDS011;55298;-36.624;-64.282;2024-02-21T07:13:13;3.72;;;2.10;;
59972;SDS011;55298;-36.624;-64.282;2024-02-21T07:15:41;3.55;;;1.98;;
59972;SDS011;55298;-36.624;-64.282;2024-02-21T07:18:09;4.90;;;2.00;;
59972;SDS011;55298;-36.624;-64.282;2024-02-21T07:20:37;5.03;;;2.22;;
59972;SDS011;55298;-36.624;-64.282;2024-02-21T07:23:07;4.03;;;2.00;;
59972;SDS011;55298;-36.624;-64.282;2024-02-21T07:25:35;3.95;;;2.20;;
59972;SDS011;55298;-36.624;-64.282;2024-02-21T07:28:03;3.53;;;2.25;;
59972;SDS011;55298;-36.624;-64.282;2024-02-21T07:30:31;4.10;;;2.10;;
59972;SDS011;55298;-36.624;-64.282;2024-02-21T07:32:58;7.30;;;2.40;;
59972;SDS011;55298;-36.624;-64.282;2024-02-21T07:35:26;4.30;;;2.30;;
59972;SDS011;55298;-36.624;-64.282;2024-02-21T07:37:55;5.80;;;2.38;;
59972;SDS011;55298;-36.624;-64.282;2024-02-21T07:40:23;4.60;;;2.28;;
59972;SDS011;55298;-36.624;-64.282;2024-02-21T07:42:50;3.00;;;2.22;;
59972;SDS011;55298;-36.624;-64.282;2024-02-21T07:45:18;4.82;;;2.30;;
59972;SDS011;55298;-36.624;-64.282;2024-02-21T07:47:49;3.53;;;2.00;;
59972;SDS011;55298;-36.624;-64.282;2024-02-21T07:50:17;5.38;;;2.10;;
59972;SDS011;55298;-36.624;-64.282;2024-02-21T07:52:44;2.15;;;1.90;;
59972;SDS011;55298;-36.624;-64.282;2024-02-21T07:55:12;4.03;;;2.30;;
59972;SDS011;55298;-36.624;-64.282;2024-02-21T07:57:40;5.60;;;2.33;;
59972;SDS011;55298;-36.624;-64.282;2024-02-21T08:00:08;5.38;;;2.03;;
59972;SDS011;55298;-36.624;-64.282;2024-02-21T08:02:40;4.65;;;2.22;;
59972;SDS011;55298;-36.624;-64.282;2024-02-21T08:05:09;4.65;;;2.20;;
59972;SDS011;55298;-36.624;-64.282;2024-02-21T08:07:38;3.95;;;2.15;;
59972;SDS011;55298;-36.624;-64.282;2024-02-21T08:10:05;5.93;;;2.05;;
59972;SDS011;55298;-36.624;-64.282;2024-02-21T08:12:35;2.83;;;2.10;;
59972;SDS011;55298;-36.624;-64.282;2024-02-21T08:15:03;5.00;;;2.55;;
59972;SDS011;55298;-36.624;-64.282;2024-02-21T08:17:33;3.08;;;2.22;;
59972;SDS011;55298;-36.624;-64.282;2024-02-21T08:20:01;4.88;;;2.20;;
59972;SDS011;55298;-36.624;-64.282;2024-02-21T08:22:30;3.97;;;2.20;;
59972;SDS011;55298;-36.624;-64.282;2024-02-21T08:24:57;8.10;;;2.92;;
59972;SDS011;55298;-36.624;-64.282;2024-02-21T08:27:25;2.90;;;2.40;;
59972;SDS011;55298;-36.624;-64.282;2024-02-21T08:29:52;3.65;;;2.60;;
59972;SDS011;55298;-36.624;-64.282;2024-02-21T08:32:20;3.33;;;2.08;;
59972;SDS011;55298;-36.624;-64.282;2024-02-21T08:34:48;4.57;;;2.20;;
59972;SDS011;55298;-36.624;-64.282;2024-02-21T08:37:17;4.50;;;2.20;;
59972;SDS011;55298;-36.624;-64.282;2024-02-21T08:39:47;2.65;;;2.45;;
59972;SDS011;55298;-36.624;-64.282;2024-02-21T08:42:15;4.03;;;2.40;;
59972;SDS011;55298;-36.624;-64.282;2024-02-21T08:44:42;5.22;;;2.40;;
59972;SDS011;55298;-36.624;-64.282;2024-02-21T08:47:11;4.05;;;2.38;;
59972;SDS011;55298;-36.624;-64.282;2024-02-21T08:49:40;3.35;;;2.10;;
59972;SDS011;55298;-36.624;-64.282;2024-02-21T08:52:07;4.75;;;2.10;;
59972;SDS011;55298;-36.624;-64.282;2024-02-21T08:54:35;5.95;;;2.55;;
59972;SDS011;55298;-36.624;-64.282;2024-02-21T08:57:03;4.30;;;2.53;;
59972;SDS011;55298;-36.624;-64.282;2024-02-21T08:59:31;6.88;;;2.70;;
59972;SDS011;55298;-36.624;-64.282;2024-02-21T09:02:00;3.58;;;2.35;;
59972;SDS011;55298;-36.624;-64.282;2024-02-21T09:04:30;5.72;;;2.45;;
59972;SDS011;55298;-36.624;-64.282;2024-02-21T09:06:58;6.00;;;2.40;;
59972;SDS011;55298;-36.624;-64.282;2024-02-21T09:09:26;5.75;;;2.65;;
59972;SDS011;55298;-36.624;-64.282;2024-02-21T09:11:54;3.70;;;2.50;;
59972;SDS011;55298;-36.624;-64.282;2024-02-21T09:14:22;6.05;;;2.60;;
59972;SDS011;55298;-36.624;-64.282;2024-02-21T09:16:49;4.43;;;2.70;;
59972;SDS011;55298;-36.624;-64.282;2024-02-21T09:19:19;6.35;;;2.83;;
59972;SDS011;55298;-36.624;-64.282;2024-02-21T09:21:49;8.93;;;2.70;;
59972;SDS011;55298;-36.624;-64.282;2024-02-21T09:24:18;3.72;;;2.30;;
59972;SDS011;55298;-36.624;-64.282;2024-02-21T09:26:46;5.68;;;2.88;;
59972;SDS011;55298;-36.624;-64.282;2024-02-21T09:29:14;5.00;;;2.90;;
59972;SDS011;55298;-36.624;-64.282;2024-02-21T09:31:42;8.63;;;3.58;;
59972;SDS011;55298;-36.624;-64.282;2024-02-21T09:34:10;4.45;;;2.60;;
59972;SDS011;55298;-36.624;-64.282;2024-02-21T09:36:41;4.18;;;2.60;;
59972;SDS011;55298;-36.624;-64.282;2024-02-21T09:39:11;5.15;;;2.75;;
59972;SDS011;55298;-36.624;-64.282;2024-02-21T09:41:46;5.27;;;2.70;;
59972;SDS011;55298;-36.624;-64.282;2024-02-21T09:44:21;6.97;;;3.00;;
59972;SDS011;55298;-36.624;-64.282;2024-02-21T09:46:55;7.80;;;2.75;;
59972;SDS011;55298;-36.624;-64.282;2024-02-21T09:49:35;5.80;;;2.90;;
59972;SDS011;55298;-36.624;-64.282;2024-02-21T09:52:05;10.20;;;3.08;;
59972;SDS011;55298;-36.624;-64.282;2024-02-21T09:54:35;8.00;;;3.83;;
59972;SDS011;55298;-36.624;-64.282;2024-02-21T09:57:03;7.97;;;4.60;;
59972;SDS011;55298;-36.624;-64.282;2024-02-21T09:59:33;8.35;;;3.70;;
59972;SDS011;55298;-36.624;-64.282;2024-02-21T10:02:01;6.00;;;3.40;;
59972;SDS011;55298;-36.624;-64.282;2024-02-21T10:04:29;5.63;;;2.80;;
59972;SDS011;55298;-36.624;-64.282;2024-02-21T10:06:59;7.25;;;4.25;;
59972;SDS011;55298;-36.624;-64.282;2024-02-21T10:09:27;9.43;;;4.60;;
59972;SDS011;55298;-36.624;-64.282;2024-02-21T10:11:56;5.38;;;2.90;;
59972;SDS011;55298;-36.624;-64.282;2024-02-21T10:14:35;7.13;;;3.30;;
59972;SDS011;55298;-36.624;-64.282;2024-02-21T10:17:03;7.90;;;2.70;;
59972;SDS011;55298;-36.624;-64.282;2024-02-21T10:19:35;7.95;;;3.85;;
59972;SDS011;55298;-36.624;-64.282;2024-02-21T10:22:06;8.70;;;3.42;;
59972;SDS011;55298;-36.624;-64.282;2024-02-21T10:24:37;11.90;;;3.40;;
59972;SDS011;55298;-36.624;-64.282;2024-02-21T10:27:08;10.70;;;4.53;;
59972;SDS011;55298;-36.624;-64.282;2024-02-21T10:29:40;7.78;;;3.15;;
59972;SDS011;55298;-36.624;-64.282;2024-02-21T10:32:17;8.98;;;3.00;;
59972;SDS011;55298;-36.624;-64.282;2024-02-21T10:34:49;9.18;;;3.22;;
59972;SDS011;55298;-36.624;-64.282;2024-02-21T10:37:27;12.10;;;3.50;;
59972;SDS011;55298;-36.624;-64.282;2024-02-21T10:39:57;10.10;;;3.53;;
59972;SDS011;55298;-36.624;-64.282;2024-02-21T10:42:31;14.07;;;4.82;;
59972;SDS011;55298;-36.624;-64.282;2024-02-21T10:45:05;15.00;;;4.43;;
59972;SDS011;55298;-36.624;-64.282;2024-02-21T10:47:34;15.20;;;4.32;;
59972;SDS011;55298;-36.624;-64.282;2024-02-21T10:50:05;11.35;;;4.53;;
59972;SDS011;55298;-36.624;-64.282;2024-02-21T10:55:37;10.07;;;3.88;;
59972;SDS011;55298;-36.624;-64.282;2024-02-21T10:58:15;10.77;;;4.38;;
59972;SDS011;55298;-36.624;-64.282;2024-02-21T11:00:44;14.07;;;3.90;;
59972;SDS011;55298;-36.624;-64.282;2024-02-21T11:03:12;12.43;;;4.68;;
59972;SDS011;55298;-36.624;-64.282;2024-02-21T11:05:41;10.82;;;3.75;;
59972;SDS011;55298;-36.624;-64.282;2024-02-21T11:08:15;11.70;;;3.95;;
59972;SDS011;55298;-36.624;-64.282;2024-02-21T11:10:47;10.65;;;3.63;;
59972;SDS011;55298;-36.624;-64.282;2024-02-21T11:13:16;9.07;;;3.00;;
59972;SDS011;55298;-36.624;-64.282;2024-02-21T11:15:47;7.82;;;2.90;;
59972;SDS011;55298;-36.624;-64.282;2024-02-21T11:18:22;9.00;;;3.05;;
59972;SDS011;55298;-36.624;-64.282;2024-02-21T11:20:51;7.68;;;3.38;;
59972;SDS011;55298;-36.624;-64.282;2024-02-21T11:23:27;10.27;;;4.18;;
59972;SDS011;55298;-36.624;-64.282;2024-02-21T11:28:40;19.27;;;8.00;;
59972;SDS011;55298;-36.624;-64.282;2024-02-21T11:31:11;12.75;;;4.68;;
59972;SDS011;55298;-36.624;-64.282;2024-02-21T11:33:40;12.68;;;4.72;;
59972;SDS011;55298;-36.624;-64.282;2024-02-21T11:36:23;9.60;;;4.65;;
59972;SDS011;55298;-36.624;-64.282;2024-02-21T11:38:54;6.80;;;3.80;;
59972;SDS011;55298;-36.624;-64.282;2024-02-21T11:41:30;9.70;;;3.28;;
59972;SDS011;55298;-36.624;-64.282;2024-02-21T11:44:21;6.90;;;2.95;;
59972;SDS011;55298;-36.624;-64.282;2024-02-21T11:46:52;8.52;;;2.70;;
59972;SDS011;55298;-36.624;-64.282;2024-02-21T11:49:29;7.75;;;2.50;;
59972;SDS011;55298;-36.624;-64.282;2024-02-21T11:52:05;7.00;;;2.83;;
59972;SDS011;55298;-36.624;-64.282;2024-02-21T11:54:34;5.97;;;2.60;;
59972;SDS011;55298;-36.624;-64.282;2024-02-21T11:57:15;6.15;;;3.67;;
59972;SDS011;55298;-36.624;-64.282;2024-02-21T11:59:45;6.15;;;2.15;;
59972;SDS011;55298;-36.624;-64.282;2024-02-21T12:02:16;7.88;;;2.58;;
59972;SDS011;55298;-36.624;-64.282;2024-02-21T12:04:45;5.80;;;2.13;;
59972;SDS011;55298;-36.624;-64.282;2024-02-21T12:07:14;8.18;;;2.60;;
59972;SDS011;55298;-36.624;-64.282;2024-02-21T12:09:44;4.13;;;1.70;;
59972;SDS011;55298;-36.624;-64.282;2024-02-21T12:12:13;6.22;;;2.42;;
59972;SDS011;55298;-36.624;-64.282;2024-02-21T12:14:46;4.50;;;2.30;;
59972;SDS011;55298;-36.624;-64.282;2024-02-21T12:17:20;5.60;;;2.97;;
59972;SDS011;55298;-36.624;-64.282;2024-02-21T12:19:50;6.82;;;2.17;;
59972;SDS011;55298;-36.624;-64.282;2024-02-21T12:22:19;6.22;;;2.58;;
59972;SDS011;55298;-36.624;-64.282;2024-02-21T12:24:47;4.20;;;2.33;;
59972;SDS011;55298;-36.624;-64.282;2024-02-21T12:27:16;3.80;;;1.80;;
59972;SDS011;55298;-36.624;-64.282;2024-02-21T12:29:46;5.45;;;1.92;;
59972;SDS011;55298;-36.624;-64.282;2024-02-21T12:32:14;4.57;;;1.70;;
59972;SDS011;55298;-36.624;-64.282;2024-02-21T12:34:44;5.63;;;1.70;;
59972;SDS011;55298;-36.624;-64.282;2024-02-21T12:37:12;3.70;;;1.80;;
59972;SDS011;55298;-36.624;-64.282;2024-02-21T12:39:41;6.90;;;1.83;;
59972;SDS011;55298;-36.624;-64.282;2024-02-21T12:42:09;10.95;;;5.43;;
59972;SDS011;55298;-36.624;-64.282;2024-02-21T12:44:38;6.15;;;2.03;;
59972;SDS011;55298;-36.624;-64.282;2024-02-21T12:47:08;9.60;;;2.72;;
59972;SDS011;55298;-36.624;-64.282;2024-02-21T12:49:39;4.78;;;1.98;;
59972;SDS011;55298;-36.624;-64.282;2024-02-21T12:52:08;5.95;;;2.25;;
59972;SDS011;55298;-36.624;-64.282;2024-02-21T12:54:37;3.25;;;1.80;;
59972;SDS011;55298;-36.624;-64.282;2024-02-21T12:57:08;7.80;;;1.60;;
59972;SDS011;55298;-36.624;-64.282;2024-02-21T12:59:36;3.30;;;1.85;;
59972;SDS011;55298;-36.624;-64.282;2024-02-21T13:02:04;41.22;;;6.40;;
59972;SDS011;55298;-36.624;-64.282;2024-02-21T13:04:34;16.77;;;2.17;;
59972;SDS011;55298;-36.624;-64.282;2024-02-21T13:07:01;5.82;;;1.83;;
59972;SDS011;55298;-36.624;-64.282;2024-02-21T13:09:32;4.97;;;1.75;;
59972;SDS011;55298;-36.624;-64.282;2024-02-21T13:12:00;4.72;;;1.55;;
59972;SDS011;55298;-36.624;-64.282;2024-02-21T13:14:31;7.50;;;1.70;;
59972;SDS011;55298;-36.624;-64.282;2024-02-21T13:17:00;4.57;;;2.22;;
59972;SDS011;55298;-36.624;-64.282;2024-02-21T13:19:29;6.80;;;1.77;;
59972;SDS011;55298;-36.624;-64.282;2024-02-21T13:21:57;1.95;;;1.35;;
59972;SDS011;55298;-36.624;-64.282;2024-02-21T13:24:30;4.05;;;1.80;;
59972;SDS011;55298;-36.624;-64.282;2024-02-21T13:26:58;6.80;;;1.60;;
59972;SDS011;55298;-36.624;-64.282;2024-02-21T13:29:25;5.80;;;2.63;;
59972;SDS011;55298;-36.624;-64.282;2024-02-21T13:31:58;4.70;;;1.90;;
59972;SDS011;55298;-36.624;-64.282;2024-02-21T13:34:27;5.05;;;2.20;;
59972;SDS011;55298;-36.624;-64.282;2024-02-21T13:36:55;3.42;;;1.58;;
59972;SDS011;55298;-36.624;-64.282;2024-02-21T13:39:24;3.55;;;1.73;;
59972;SDS011;55298;-36.624;-64.282;2024-02-21T13:41:52;3.00;;;1.58;;
59972;SDS011;55298;-36.624;-64.282;2024-02-21T13:44:21;3.28;;;1.58;;
59972;SDS011;55298;-36.624;-64.282;2024-02-21T13:46:50;4.82;;;1.75;;
59972;SDS011;55298;-36.624;-64.282;2024-02-21T13:49:17;4.18;;;1.98;;
59972;SDS011;55298;-36.624;-64.282;2024-02-21T13:51:47;2.70;;;1.45;;
59972;SDS011;55298;-36.624;-64.282;2024-02-21T13:54:15;6.57;;;1.55;;
59972;SDS011;55298;-36.624;-64.282;2024-02-21T13:56:45;3.13;;;1.60;;
59972;SDS011;55298;-36.624;-64.282;2024-02-21T13:59:12;5.60;;;1.77;;
59972;SDS011;55298;-36.624;-64.282;2024-02-21T14:01:46;4.43;;;1.90;;
59972;SDS011;55298;-36.624;-64.282;2024-02-21T14:04:17;3.42;;;1.30;;
59972;SDS011;55298;-36.624;-64.282;2024-02-21T14:06:46;3.70;;;1.92;;
59972;SDS011;55298;-36.624;-64.282;2024-02-21T14:09:14;4.07;;;1.55;;
59972;SDS011;55298;-36.624;-64.282;2024-02-21T14:11:42;1.98;;;1.60;;
59972;SDS011;55298;-36.624;-64.282;2024-02-21T14:14:11;4.72;;;1.85;;
59972;SDS011;55298;-36.624;-64.282;2024-02-21T14:16:41;5.40;;;2.45;;
59972;SDS011;55298;-36.624;-64.282;2024-02-21T14:19:10;4.75;;;2.28;;
59972;SDS011;55298;-36.624;-64.282;2024-02-21T14:21:38;3.90;;;2.20;;
59972;SDS011;55298;-36.624;-64.282;2024-02-21T14:24:16;3.53;;;1.92;;
59972;SDS011;55298;-36.624;-64.282;2024-02-21T14:26:44;5.10;;;1.90;;